createdAt,value
2018-01-30T00:00:12.889Z,1018.1
2018-01-30T00:01:14.488Z,1018.1
2018-01-30T00:02:16.099Z,1018.0
2018-01-30T00:03:17.705Z,1018.1
2018-01-30T00:04:19.318Z,1018.1
2018-01-30T00:05:20.922Z,1018.1
2018-01-30T00:06:23.418Z,1018.1
2018-01-30T00:07:25.031Z,1018.1
2018-01-30T00:08:27.080Z,1018.1
2018-01-30T00:09:28.841Z,1018.1
2018-01-30T00:10:30.501Z,1018.2
2018-01-30T00:11:32.115Z,1018.2
2018-01-30T00:12:33.721Z,1018.2
2018-01-30T00:13:35.888Z,1018.2
2018-01-30T00:14:37.688Z,1018.2
2018-01-30T00:15:39.766Z,1018.3
2018-01-30T00:16:41.379Z,1018.3
2018-01-30T00:17:43.544Z,1018.3
2018-01-30T00:18:45.149Z,1018.3
2018-01-30T00:19:46.883Z,1018.3
2018-01-30T00:20:48.628Z,1018.2
2018-01-30T00:21:50.256Z,1018.2
2018-01-30T00:22:52.359Z,1018.3
2018-01-30T00:23:54.131Z,1018.3
2018-01-30T00:24:55.740Z,1018.3
2018-01-30T00:25:57.708Z,1018.3
2018-01-30T00:26:59.317Z,1018.3
2018-01-30T00:28:01.443Z,1018.3
2018-01-30T00:29:03.488Z,1018.2
2018-01-30T00:30:05.242Z,1018.2
2018-01-30T00:31:06.856Z,1018.2
2018-01-30T00:32:08.464Z,1018.2
2018-01-30T00:33:10.635Z,1018.3
2018-01-30T00:34:12.243Z,1018.3
2018-01-30T00:35:14.012Z,1018.3
2018-01-30T00:36:15.949Z,1018.3
2018-01-30T00:37:17.965Z,1018.3
2018-01-30T00:38:20.011Z,1018.3
2018-01-30T00:39:21.636Z,1018.3
2018-01-30T00:40:23.810Z,1018.3
2018-01-30T00:41:25.407Z,1018.3
2018-01-30T00:42:27.185Z,1018.4
2018-01-30T00:43:29.143Z,1018.3
2018-01-30T00:44:31.125Z,1018.4
2018-01-30T00:45:32.735Z,1018.3
2018-01-30T00:46:34.654Z,1018.4
2018-01-30T00:47:36.702Z,1018.4
2018-01-30T00:48:38.301Z,1018.5
2018-01-30T00:49:39.908Z,1018.5
2018-01-30T00:50:41.521Z,1018.5
2018-01-30T00:51:43.130Z,1018.5
2018-01-30T00:52:44.729Z,1018.5
2018-01-30T00:53:46.333Z,1018.5
2018-01-30T00:54:47.944Z,1018.6
2018-01-30T00:55:49.555Z,1018.6
2018-01-30T00:56:51.159Z,1018.6
2018-01-30T00:57:52.769Z,1018.5
2018-01-30T00:58:54.369Z,1018.6
2018-01-30T00:59:55.979Z,1018.5
2018-01-30T01:00:57.588Z,1018.5
2018-01-30T01:01:59.193Z,1018.5
2018-01-30T01:03:00.805Z,1018.5
2018-01-30T01:04:02.411Z,1018.5
2018-01-30T01:05:04.023Z,1018.5
2018-01-30T01:06:05.630Z,1018.5
2018-01-30T01:07:07.238Z,1018.5
2018-01-30T01:08:08.845Z,1018.5
2018-01-30T01:09:10.451Z,1018.5
2018-01-30T01:10:12.060Z,1018.5
2018-01-30T01:11:13.671Z,1018.5
2018-01-30T01:12:15.280Z,1018.5
2018-01-30T01:13:16.888Z,1018.5
2018-01-30T01:14:18.492Z,1018.5
2018-01-30T01:15:20.096Z,1018.5
2018-01-30T01:16:21.706Z,1018.5
2018-01-30T01:17:23.312Z,1018.5
2018-01-30T01:18:24.917Z,1018.6
2018-01-30T01:19:26.532Z,1018.5
2018-01-30T01:20:28.141Z,1018.6
2018-01-30T01:21:29.744Z,1018.6
2018-01-30T01:22:31.355Z,1018.6
2018-01-30T01:23:32.957Z,1018.6
2018-01-30T01:24:34.569Z,1018.7
2018-01-30T01:25:36.173Z,1018.7
2018-01-30T01:26:37.787Z,1018.7
2018-01-30T01:27:39.390Z,1018.7
2018-01-30T01:28:40.999Z,1018.7
2018-01-30T01:29:42.601Z,1018.7
2018-01-30T01:30:44.215Z,1018.7
2018-01-30T01:31:45.825Z,1018.7
2018-01-30T01:32:47.435Z,1018.7
2018-01-30T01:33:49.043Z,1018.6
2018-01-30T01:34:50.650Z,1018.6
2018-01-30T01:35:52.255Z,1018.7
2018-01-30T01:36:53.859Z,1018.6
2018-01-30T01:37:55.469Z,1018.6
2018-01-30T01:38:57.079Z,1018.6
2018-01-30T01:39:58.683Z,1018.6
2018-01-30T01:41:00.292Z,1018.6
2018-01-30T01:42:01.901Z,1018.7
2018-01-30T01:43:03.506Z,1018.7
2018-01-30T01:44:05.108Z,1018.7
2018-01-30T01:45:06.720Z,1018.7
2018-01-30T01:46:08.324Z,1018.6
2018-01-30T01:47:09.931Z,1018.6
2018-01-30T01:48:11.543Z,1018.6
2018-01-30T01:49:13.153Z,1018.6
2018-01-30T01:50:14.755Z,1018.6
2018-01-30T01:51:16.362Z,1018.6
2018-01-30T01:52:17.972Z,1018.5
2018-01-30T01:53:19.577Z,1018.6
2018-01-30T01:54:21.195Z,1018.6
2018-01-30T01:55:23.053Z,1018.6
2018-01-30T01:56:24.657Z,1018.6
2018-01-30T01:57:26.231Z,1018.6
2018-01-30T01:58:27.839Z,1018.6
2018-01-30T01:59:29.444Z,1018.5
2018-01-30T02:00:31.054Z,1018.5
2018-01-30T02:01:32.661Z,1018.5
2018-01-30T02:02:34.272Z,1018.5
2018-01-30T02:03:35.879Z,1018.5
2018-01-30T02:04:37.481Z,1018.5
2018-01-30T02:05:39.090Z,1018.5
2018-01-30T02:06:40.699Z,1018.5
2018-01-30T02:07:42.308Z,1018.5
2018-01-30T02:08:43.918Z,1018.5
2018-01-30T02:09:45.527Z,1018.5
2018-01-30T02:10:47.128Z,1018.5
2018-01-30T02:11:48.739Z,1018.5
2018-01-30T02:12:50.343Z,1018.5
2018-01-30T02:13:51.954Z,1018.4
2018-01-30T02:14:53.558Z,1018.4
2018-01-30T02:15:55.173Z,1018.4
2018-01-30T02:16:56.775Z,1018.5
2018-01-30T02:17:58.379Z,1018.4
2018-01-30T02:18:59.989Z,1018.5
2018-01-30T02:20:01.596Z,1018.4
2018-01-30T02:21:03.204Z,1018.4
2018-01-30T02:22:04.810Z,1018.3
2018-01-30T02:23:06.421Z,1018.3
2018-01-30T02:24:08.028Z,1018.3
2018-01-30T02:25:09.636Z,1018.3
2018-01-30T02:26:11.241Z,1018.3
2018-01-30T02:27:12.850Z,1018.3
2018-01-30T02:28:14.461Z,1018.3
2018-01-30T02:29:16.068Z,1018.3
2018-01-30T02:30:17.674Z,1018.3
2018-01-30T02:31:19.286Z,1018.4
2018-01-30T02:32:20.893Z,1018.3
2018-01-30T02:33:22.497Z,1018.3
2018-01-30T02:34:24.107Z,1018.3
2018-01-30T02:35:25.709Z,1018.3
2018-01-30T02:36:27.321Z,1018.2
2018-01-30T02:37:28.924Z,1018.2
2018-01-30T02:38:30.541Z,1018.2
2018-01-30T02:39:32.142Z,1018.2
2018-01-30T02:40:33.754Z,1018.2
2018-01-30T02:41:35.357Z,1018.3
2018-01-30T02:42:36.971Z,1018.3
2018-01-30T02:43:38.569Z,1018.3
2018-01-30T02:44:40.180Z,1018.3
2018-01-30T02:45:41.799Z,1018.3
2018-01-30T02:46:43.407Z,1018.2
2018-01-30T02:47:45.007Z,1018.2
2018-01-30T02:48:46.614Z,1018.2
2018-01-30T02:49:48.222Z,1018.2
2018-01-30T02:50:49.838Z,1018.2
2018-01-30T02:51:51.444Z,1018.3
2018-01-30T02:52:53.045Z,1018.2
2018-01-30T02:53:54.654Z,1018.2
2018-01-30T02:54:56.260Z,1018.2
2018-01-30T02:55:57.868Z,1018.2
2018-01-30T02:56:59.486Z,1018.2
2018-01-30T02:58:01.099Z,1018.2
2018-01-30T02:59:02.700Z,1018.2
2018-01-30T03:00:04.306Z,1018.2
2018-01-30T03:01:05.912Z,1018.2
2018-01-30T03:02:07.517Z,1018.1
2018-01-30T03:03:09.130Z,1018.1
2018-01-30T03:04:10.728Z,1018.2
2018-01-30T03:05:12.338Z,1018.2
2018-01-30T03:06:13.948Z,1018.2
2018-01-30T03:07:15.556Z,1018.2
2018-01-30T03:08:17.158Z,1018.2
2018-01-30T03:09:18.767Z,1018.2
2018-01-30T03:10:20.375Z,1018.2
2018-01-30T03:11:21.977Z,1018.2
2018-01-30T03:12:23.586Z,1018.2
2018-01-30T03:13:25.195Z,1018.3
2018-01-30T03:14:26.801Z,1018.3
2018-01-30T03:15:28.404Z,1018.3
2018-01-30T03:16:30.017Z,1018.3
2018-01-30T03:17:31.626Z,1018.3
2018-01-30T03:18:33.234Z,1018.3
2018-01-30T03:19:34.841Z,1018.3
2018-01-30T03:20:36.445Z,1018.3
2018-01-30T03:21:38.059Z,1018.3
2018-01-30T03:22:39.666Z,1018.3
2018-01-30T03:23:41.272Z,1018.3
2018-01-30T03:24:42.875Z,1018.2
2018-01-30T03:25:44.486Z,1018.2
2018-01-30T03:26:46.095Z,1018.2
2018-01-30T03:27:47.702Z,1018.2
2018-01-30T03:28:49.308Z,1018.2
2018-01-30T03:29:50.917Z,1018.2
2018-01-30T03:30:52.519Z,1018.2
2018-01-30T03:31:54.128Z,1018.2
2018-01-30T03:32:55.731Z,1018.2
2018-01-30T03:33:57.343Z,1018.3
2018-01-30T03:34:58.951Z,1018.3
2018-01-30T03:36:00.556Z,1018.2
2018-01-30T03:37:02.160Z,1018.2
2018-01-30T03:38:03.767Z,1018.3
2018-01-30T03:39:05.373Z,1018.3
2018-01-30T03:40:06.975Z,1018.3
2018-01-30T03:41:08.581Z,1018.4
2018-01-30T03:42:10.190Z,1018.4
2018-01-30T03:43:11.798Z,1018.4
2018-01-30T03:44:13.398Z,1018.4
2018-01-30T03:45:15.004Z,1018.5
2018-01-30T03:46:16.612Z,1018.5
2018-01-30T03:47:18.223Z,1018.5
2018-01-30T03:48:19.827Z,1018.5
2018-01-30T03:49:21.431Z,1018.5
2018-01-30T03:50:23.042Z,1018.5
2018-01-30T03:51:24.651Z,1018.5
2018-01-30T03:52:26.257Z,1018.5
2018-01-30T03:53:27.861Z,1018.5
2018-01-30T03:54:29.464Z,1018.5
2018-01-30T03:55:31.076Z,1018.5
2018-01-30T03:56:32.680Z,1018.5
2018-01-30T03:57:34.294Z,1018.5
2018-01-30T03:58:35.891Z,1018.5
2018-01-30T03:59:37.498Z,1018.6
2018-01-30T04:00:39.109Z,1018.6
2018-01-30T04:01:40.718Z,1018.6
2018-01-30T04:02:42.370Z,1018.6
2018-01-30T04:03:43.933Z,1018.6
2018-01-30T04:04:45.542Z,1018.6
2018-01-30T04:05:47.150Z,1018.7
2018-01-30T04:06:48.752Z,1018.7
2018-01-30T04:07:50.357Z,1018.7
2018-01-30T04:08:51.963Z,1018.7
2018-01-30T04:09:53.575Z,1018.7
2018-01-30T04:10:55.182Z,1018.7
2018-01-30T04:11:56.788Z,1018.7
2018-01-30T04:12:58.396Z,1018.7
2018-01-30T04:13:59.999Z,1018.7
2018-01-30T04:15:01.610Z,1018.7
2018-01-30T04:16:03.214Z,1018.7
2018-01-30T04:17:04.826Z,1018.7
2018-01-30T04:18:06.440Z,1018.7
2018-01-30T04:19:08.042Z,1018.8
2018-01-30T04:20:09.649Z,1018.8
2018-01-30T04:21:11.252Z,1018.8
2018-01-30T04:22:12.853Z,1018.7
2018-01-30T04:23:14.465Z,1018.7
2018-01-30T04:24:16.076Z,1018.7
2018-01-30T04:25:17.699Z,1018.7
2018-01-30T04:26:19.306Z,1018.7
2018-01-30T04:27:20.916Z,1018.7
2018-01-30T04:28:22.523Z,1018.7
2018-01-30T04:29:24.127Z,1018.7
2018-01-30T04:30:25.738Z,1018.8
2018-01-30T04:31:27.343Z,1018.7
2018-01-30T04:32:28.954Z,1018.7
2018-01-30T04:33:30.560Z,1018.7
2018-01-30T04:34:32.171Z,1018.7
2018-01-30T04:35:33.772Z,1018.7
2018-01-30T04:36:35.382Z,1018.7
2018-01-30T04:37:36.988Z,1018.7
2018-01-30T04:38:38.593Z,1018.6
2018-01-30T04:39:40.206Z,1018.6
2018-01-30T04:40:41.814Z,1018.6
2018-01-30T04:41:43.423Z,1018.6
2018-01-30T04:42:45.024Z,1018.6
2018-01-30T04:43:46.637Z,1018.6
2018-01-30T04:44:48.238Z,1018.6
2018-01-30T04:45:49.850Z,1018.6
2018-01-30T04:46:51.459Z,1018.6
2018-01-30T04:47:53.071Z,1018.6
2018-01-30T04:48:54.673Z,1018.6
2018-01-30T04:49:56.278Z,1018.6
2018-01-30T04:50:57.880Z,1018.5
2018-01-30T04:51:59.493Z,1018.6
2018-01-30T04:53:01.106Z,1018.6
2018-01-30T04:54:02.710Z,1018.6
2018-01-30T04:55:04.322Z,1018.6
2018-01-30T04:56:05.922Z,1018.6
2018-01-30T04:57:07.531Z,1018.6
2018-01-30T04:58:09.138Z,1018.6
2018-01-30T04:59:10.747Z,1018.6
2018-01-30T05:00:12.351Z,1018.6
2018-01-30T05:01:13.963Z,1018.6
2018-01-30T05:02:15.569Z,1018.6
2018-01-30T05:03:17.174Z,1018.5
2018-01-30T05:04:18.777Z,1018.5
2018-01-30T05:05:20.386Z,1018.5
2018-01-30T05:06:21.991Z,1018.5
2018-01-30T05:07:23.610Z,1018.6
2018-01-30T05:08:25.210Z,1018.5
2018-01-30T05:09:26.814Z,1018.5
2018-01-30T05:10:28.428Z,1018.5
2018-01-30T05:11:30.029Z,1018.5
2018-01-30T05:12:31.641Z,1018.6
2018-01-30T05:13:33.246Z,1018.5
2018-01-30T05:14:34.851Z,1018.5
2018-01-30T05:15:36.460Z,1018.5
2018-01-30T05:16:38.072Z,1018.5
2018-01-30T05:17:39.679Z,1018.6
2018-01-30T05:18:41.282Z,1018.6
2018-01-30T05:19:42.889Z,1018.6
2018-01-30T05:20:44.501Z,1018.6
2018-01-30T05:21:46.102Z,1018.6
2018-01-30T05:22:47.714Z,1018.6
2018-01-30T05:23:49.318Z,1018.6
2018-01-30T05:24:50.929Z,1018.5
2018-01-30T05:25:52.531Z,1018.6
2018-01-30T05:26:54.143Z,1018.6
2018-01-30T05:27:55.747Z,1018.6
2018-01-30T05:28:57.357Z,1018.5
2018-01-30T05:29:58.968Z,1018.5
2018-01-30T05:31:00.574Z,1018.5
2018-01-30T05:32:02.176Z,1018.5
2018-01-30T05:33:03.789Z,1018.5
2018-01-30T05:34:05.389Z,1018.6
2018-01-30T05:35:07.001Z,1018.6
2018-01-30T05:36:08.608Z,1018.6
2018-01-30T05:37:10.215Z,1018.6
2018-01-30T05:38:11.827Z,1018.6
2018-01-30T05:39:13.427Z,1018.6
2018-01-30T05:40:15.037Z,1018.7
2018-01-30T05:41:16.645Z,1018.6
2018-01-30T05:42:18.246Z,1018.6
2018-01-30T05:43:19.851Z,1018.7
2018-01-30T05:44:21.464Z,1018.7
2018-01-30T05:45:23.068Z,1018.7
2018-01-30T05:46:24.677Z,1018.7
2018-01-30T05:47:26.281Z,1018.7
2018-01-30T05:48:27.893Z,1018.8
2018-01-30T05:49:29.498Z,1018.9
2018-01-30T05:50:31.109Z,1018.8
2018-01-30T05:51:32.715Z,1018.8
2018-01-30T05:52:34.323Z,1018.8
2018-01-30T05:53:35.932Z,1018.8
2018-01-30T05:54:37.541Z,1018.8
2018-01-30T05:55:39.152Z,1018.8
2018-01-30T05:56:40.749Z,1018.8
2018-01-30T05:57:42.359Z,1018.8
2018-01-30T05:58:43.970Z,1018.9
2018-01-30T05:59:45.574Z,1018.9
2018-01-30T06:00:47.182Z,1019.0
2018-01-30T06:01:48.791Z,1019.0
2018-01-30T06:02:50.398Z,1018.9
2018-01-30T06:03:52.005Z,1019.0
2018-01-30T06:04:53.611Z,1019.0
2018-01-30T06:05:55.224Z,1018.9
2018-01-30T06:06:56.833Z,1018.7
2018-01-30T06:07:58.436Z,1018.6
2018-01-30T06:09:00.046Z,1018.6
2018-01-30T06:10:01.649Z,1018.6
2018-01-30T06:11:03.252Z,1018.7
2018-01-30T06:12:04.864Z,1018.7
2018-01-30T06:13:06.475Z,1018.6
2018-01-30T06:14:08.080Z,1018.5
2018-01-30T06:15:09.684Z,1018.6
2018-01-30T06:16:11.296Z,1018.7
2018-01-30T06:17:12.903Z,1018.7
2018-01-30T06:18:14.507Z,1018.7
2018-01-30T06:19:16.112Z,1018.7
2018-01-30T06:20:17.723Z,1018.7
2018-01-30T06:21:19.334Z,1018.7
2018-01-30T06:22:20.938Z,1018.7
2018-01-30T06:23:22.544Z,1018.7
2018-01-30T06:24:24.170Z,1018.7
2018-01-30T06:25:25.776Z,1018.7
2018-01-30T06:26:27.387Z,1018.7
2018-01-30T06:27:28.997Z,1018.7
2018-01-30T06:28:30.603Z,1018.8
2018-01-30T06:29:32.207Z,1018.8
2018-01-30T06:30:33.816Z,1018.8
2018-01-30T06:31:35.426Z,1018.8
2018-01-30T06:32:37.035Z,1018.7
2018-01-30T06:33:38.697Z,1018.8
2018-01-30T06:34:40.247Z,1018.8
2018-01-30T06:35:41.859Z,1018.8
2018-01-30T06:36:43.459Z,1018.8
2018-01-30T06:37:45.069Z,1018.8
2018-01-30T06:38:46.679Z,1018.8
2018-01-30T06:39:48.280Z,1018.8
2018-01-30T06:40:49.886Z,1018.8
2018-01-30T06:41:51.497Z,1018.9
2018-01-30T06:42:53.103Z,1018.9
2018-01-30T06:43:54.711Z,1018.8
2018-01-30T06:44:56.319Z,1018.7
2018-01-30T06:45:57.928Z,1018.7
2018-01-30T06:46:59.533Z,1018.7
2018-01-30T06:48:01.141Z,1018.7
2018-01-30T06:49:02.752Z,1018.7
2018-01-30T06:50:04.359Z,1018.7
2018-01-30T06:51:05.968Z,1018.8
2018-01-30T06:52:07.571Z,1018.7
2018-01-30T06:53:09.181Z,1018.7
2018-01-30T06:54:10.788Z,1018.7
2018-01-30T06:55:12.394Z,1018.7
2018-01-30T06:56:14.009Z,1018.8
2018-01-30T06:57:15.617Z,1018.8
2018-01-30T06:58:17.224Z,1018.7
2018-01-30T06:59:18.826Z,1018.7
2018-01-30T07:00:20.435Z,1018.7
2018-01-30T07:01:22.040Z,1018.7
2018-01-30T07:02:23.653Z,1018.8
2018-01-30T07:03:25.260Z,1018.7
2018-01-30T07:04:27.770Z,1018.7
2018-01-30T07:05:29.379Z,1018.7
2018-01-30T07:06:30.988Z,1018.7
2018-01-30T07:07:32.601Z,1018.7
2018-01-30T07:08:34.207Z,1018.7
2018-01-30T07:09:35.818Z,1018.7
2018-01-30T07:10:37.427Z,1018.7
2018-01-30T07:11:39.035Z,1018.7
2018-01-30T07:12:40.647Z,1018.8
2018-01-30T07:13:42.253Z,1018.8
2018-01-30T07:14:43.859Z,1018.7
2018-01-30T07:15:45.474Z,1018.7
2018-01-30T07:16:47.083Z,1018.7
2018-01-30T07:17:48.696Z,1018.7
2018-01-30T07:18:50.306Z,1018.7
2018-01-30T07:19:51.917Z,1018.7
2018-01-30T07:20:53.522Z,1018.7
2018-01-30T07:21:55.134Z,1018.7
2018-01-30T07:22:56.745Z,1018.7
2018-01-30T07:23:58.351Z,1018.8
2018-01-30T07:24:59.965Z,1018.8
2018-01-30T07:26:01.580Z,1018.8
2018-01-30T07:27:03.189Z,1018.8
2018-01-30T07:28:04.805Z,1018.8
2018-01-30T07:29:06.411Z,1018.8
2018-01-30T07:30:08.019Z,1018.8
2018-01-30T07:31:09.633Z,1018.8
2018-01-30T07:32:11.239Z,1018.9
2018-01-30T07:33:12.902Z,1018.8
2018-01-30T07:34:14.460Z,1018.9
2018-01-30T07:35:16.070Z,1019.0
2018-01-30T07:36:17.677Z,1019.0
2018-01-30T07:37:19.287Z,1019.0
2018-01-30T07:38:20.903Z,1019.0
2018-01-30T07:39:22.518Z,1019.0
2018-01-30T07:40:24.129Z,1019.0
2018-01-30T07:41:25.741Z,1019.0
2018-01-30T07:42:27.350Z,1019.0
2018-01-30T07:43:28.966Z,1019.1
2018-01-30T07:44:30.581Z,1019.1
2018-01-30T07:45:32.189Z,1019.1
2018-01-30T07:46:33.800Z,1019.1
2018-01-30T07:47:35.416Z,1019.0
2018-01-30T07:48:37.023Z,1019.0
2018-01-30T07:49:38.639Z,1019.0
2018-01-30T07:50:40.247Z,1019.1
2018-01-30T07:51:41.866Z,1019.2
2018-01-30T07:52:43.474Z,1019.2
2018-01-30T07:53:45.092Z,1019.2
2018-01-30T07:54:46.701Z,1019.1
2018-01-30T07:55:48.311Z,1019.1
2018-01-30T07:56:49.924Z,1019.1
2018-01-30T07:57:51.533Z,1019.1
2018-01-30T07:58:53.151Z,1019.2
2018-01-30T07:59:54.765Z,1019.2
2018-01-30T08:00:56.383Z,1019.2
2018-01-30T08:01:57.996Z,1019.1
2018-01-30T08:02:59.605Z,1019.1
2018-01-30T08:04:01.220Z,1019.1
2018-01-30T08:05:02.833Z,1019.1
2018-01-30T08:06:04.444Z,1019.1
2018-01-30T08:07:06.060Z,1019.1
2018-01-30T08:08:07.671Z,1019.1
2018-01-30T08:09:09.290Z,1019.1
2018-01-30T08:10:10.898Z,1019.1
2018-01-30T08:11:12.521Z,1019.1
2018-01-30T08:12:14.126Z,1019.1
2018-01-30T08:13:15.743Z,1019.1
2018-01-30T08:14:17.355Z,1019.1
2018-01-30T08:15:18.970Z,1019.1
2018-01-30T08:16:20.583Z,1019.1
2018-01-30T08:17:22.193Z,1019.1
2018-01-30T08:18:23.807Z,1019.1
2018-01-30T08:19:25.422Z,1019.1
2018-01-30T08:20:27.037Z,1019.1
2018-01-30T08:21:28.649Z,1019.1
2018-01-30T08:22:30.261Z,1019.1
2018-01-30T08:23:31.881Z,1019.1
2018-01-30T08:24:33.496Z,1019.2
2018-01-30T08:25:35.103Z,1019.1
2018-01-30T08:26:36.719Z,1019.2
2018-01-30T08:27:38.335Z,1019.1
2018-01-30T08:28:39.957Z,1019.1
2018-01-30T08:29:41.561Z,1019.0
2018-01-30T08:30:43.200Z,1019.1
2018-01-30T08:31:44.792Z,1019.1
2018-01-30T08:32:46.496Z,1019.1
2018-01-30T08:33:48.112Z,1019.1
2018-01-30T08:34:49.732Z,1019.1
2018-01-30T08:35:51.338Z,1019.1
2018-01-30T08:36:52.960Z,1019.2
2018-01-30T08:37:54.570Z,1019.2
2018-01-30T08:38:56.180Z,1019.2
2018-01-30T08:39:57.798Z,1019.2
2018-01-30T08:40:59.410Z,1019.1
2018-01-30T08:42:01.023Z,1019.2
2018-01-30T08:43:02.633Z,1019.2
2018-01-30T08:44:04.253Z,1019.2
2018-01-30T08:45:05.869Z,1019.2
2018-01-30T08:46:07.477Z,1019.2
2018-01-30T08:47:09.090Z,1019.1
2018-01-30T08:48:10.705Z,1019.1
2018-01-30T08:49:12.323Z,1019.2
2018-01-30T08:50:13.935Z,1019.1
2018-01-30T08:51:15.552Z,1019.2
2018-01-30T08:52:17.170Z,1019.2
2018-01-30T08:53:18.779Z,1019.2
2018-01-30T08:54:20.392Z,1019.1
2018-01-30T08:55:22.015Z,1019.2
2018-01-30T08:56:23.621Z,1019.2
2018-01-30T08:57:25.234Z,1019.1
2018-01-30T08:58:26.853Z,1019.2
2018-01-30T08:59:28.473Z,1019.2
2018-01-30T09:00:30.080Z,1019.1
2018-01-30T09:01:31.691Z,1019.1
2018-01-30T09:02:33.308Z,1019.1
2018-01-30T09:03:34.923Z,1019.2
2018-01-30T09:04:36.534Z,1019.1
2018-01-30T09:05:38.146Z,1019.2
2018-01-30T09:06:39.762Z,1019.2
2018-01-30T09:07:41.377Z,1019.2
2018-01-30T09:08:42.986Z,1019.1
2018-01-30T09:09:44.602Z,1019.1
2018-01-30T09:10:46.210Z,1019.2
2018-01-30T09:11:47.830Z,1019.2
2018-01-30T09:12:49.441Z,1019.2
2018-01-30T09:13:51.061Z,1019.1
2018-01-30T09:14:52.668Z,1019.1
2018-01-30T09:15:54.285Z,1019.1
2018-01-30T09:16:55.898Z,1019.1
2018-01-30T09:17:57.513Z,1019.2
2018-01-30T09:18:59.125Z,1019.2
2018-01-30T09:20:00.742Z,1019.2
2018-01-30T09:21:02.372Z,1019.2
2018-01-30T09:22:03.986Z,1019.1
2018-01-30T09:23:05.595Z,1019.1
2018-01-30T09:24:07.213Z,1019.1
2018-01-30T09:25:08.824Z,1019.1
2018-01-30T09:26:10.437Z,1019.2
2018-01-30T09:27:12.055Z,1019.2
2018-01-30T09:28:13.667Z,1019.2
2018-01-30T09:29:15.280Z,1019.2
2018-01-30T09:30:16.890Z,1019.2
2018-01-30T09:31:18.508Z,1019.2
2018-01-30T09:32:20.121Z,1019.1
2018-01-30T09:33:21.738Z,1019.2
2018-01-30T09:34:23.350Z,1019.2
2018-01-30T09:35:24.968Z,1019.2
2018-01-30T09:36:26.578Z,1019.3
2018-01-30T09:37:28.193Z,1019.2
2018-01-30T09:38:29.802Z,1019.2
2018-01-30T09:39:31.418Z,1019.2
2018-01-30T09:40:33.030Z,1019.2
2018-01-30T09:41:34.649Z,1019.2
2018-01-30T09:42:36.261Z,1019.2
2018-01-30T09:43:37.880Z,1019.3
2018-01-30T09:44:39.493Z,1019.2
2018-01-30T09:45:41.104Z,1019.2
2018-01-30T09:46:42.721Z,1019.2
2018-01-30T09:47:44.342Z,1019.2
2018-01-30T09:48:45.960Z,1019.1
2018-01-30T09:49:47.569Z,1019.1
2018-01-30T09:50:49.183Z,1019.1
2018-01-30T09:51:50.793Z,1019.1
2018-01-30T09:52:52.406Z,1019.0
2018-01-30T09:53:54.026Z,1019.1
2018-01-30T09:54:55.642Z,1019.1
2018-01-30T09:55:57.255Z,1019.1
2018-01-30T09:56:58.872Z,1019.1
2018-01-30T09:58:00.487Z,1019.1
2018-01-30T09:59:02.102Z,1019.1
2018-01-30T10:00:03.711Z,1019.1
2018-01-30T10:01:05.328Z,1019.1
2018-01-30T10:02:06.939Z,1019.1
2018-01-30T10:03:08.559Z,1019.0
2018-01-30T10:04:10.171Z,1019.1
2018-01-30T10:05:11.785Z,1019.1
2018-01-30T10:06:13.398Z,1019.1
2018-01-30T10:07:15.027Z,1019.1
2018-01-30T10:08:16.630Z,1019.0
2018-01-30T10:09:18.245Z,1019.1
2018-01-30T10:10:19.860Z,1019.2
2018-01-30T10:11:21.476Z,1019.1
2018-01-30T10:12:23.094Z,1019.1
2018-01-30T10:13:24.712Z,1019.2
2018-01-30T10:14:26.328Z,1019.2
2018-01-30T10:15:27.940Z,1019.2
2018-01-30T10:16:29.560Z,1019.2
2018-01-30T10:17:31.184Z,1019.2
2018-01-30T10:18:32.801Z,1019.2
2018-01-30T10:19:34.410Z,1019.2
2018-01-30T10:20:36.032Z,1019.2
2018-01-30T10:21:38.192Z,1019.2
2018-01-30T10:22:39.813Z,1019.2
2018-01-30T10:23:41.431Z,1019.1
2018-01-30T10:24:43.044Z,1019.1
2018-01-30T10:25:44.667Z,1019.1
2018-01-30T10:26:46.278Z,1019.2
2018-01-30T10:27:47.896Z,1019.1
2018-01-30T10:28:49.507Z,1019.1
2018-01-30T10:29:51.127Z,1019.1
2018-01-30T10:30:52.739Z,1019.1
2018-01-30T10:31:54.358Z,1019.1
2018-01-30T10:32:55.979Z,1019.1
2018-01-30T10:33:57.594Z,1019.1
2018-01-30T10:34:59.206Z,1019.0
2018-01-30T10:36:00.822Z,1019.1
2018-01-30T10:37:02.438Z,1019.1
2018-01-30T10:38:04.054Z,1019.1
2018-01-30T10:39:05.669Z,1019.1
2018-01-30T10:40:07.284Z,1019.1
2018-01-30T10:41:08.902Z,1019.2
2018-01-30T10:42:10.517Z,1019.1
2018-01-30T10:43:12.137Z,1019.1
2018-01-30T10:44:13.751Z,1019.1
2018-01-30T10:45:15.370Z,1019.1
2018-01-30T10:46:16.983Z,1019.1
2018-01-30T10:47:18.606Z,1019.1
2018-01-30T10:48:20.218Z,1019.0
2018-01-30T10:49:21.838Z,1019.1
2018-01-30T10:50:23.452Z,1019.1
2018-01-30T10:51:25.071Z,1019.1
2018-01-30T10:52:26.687Z,1019.1
2018-01-30T10:53:28.309Z,1019.0
2018-01-30T10:54:29.919Z,1019.0
2018-01-30T10:55:31.537Z,1019.0
2018-01-30T10:56:33.150Z,1019.0
2018-01-30T10:57:34.768Z,1018.9
2018-01-30T10:58:36.386Z,1018.9
2018-01-30T10:59:37.999Z,1018.9
2018-01-30T11:00:39.613Z,1018.9
2018-01-30T11:01:41.233Z,1019.0
2018-01-30T11:02:42.853Z,1019.0
2018-01-30T11:03:44.464Z,1018.9
2018-01-30T11:04:46.084Z,1018.9
2018-01-30T11:05:47.696Z,1018.8
2018-01-30T11:06:49.313Z,1018.8
2018-01-30T11:07:50.932Z,1018.8
2018-01-30T11:08:52.552Z,1018.8
2018-01-30T11:09:54.165Z,1018.8
2018-01-30T11:10:55.780Z,1018.8
2018-01-30T11:11:57.401Z,1018.8
2018-01-30T11:12:59.020Z,1018.9
2018-01-30T11:14:00.638Z,1018.7
2018-01-30T11:15:02.257Z,1018.8
2018-01-30T11:16:03.874Z,1018.8
2018-01-30T11:17:05.482Z,1018.7
2018-01-30T11:18:07.102Z,1018.8
2018-01-30T11:19:08.719Z,1018.8
2018-01-30T11:20:10.342Z,1018.8
2018-01-30T11:21:11.957Z,1018.7
2018-01-30T11:22:13.570Z,1018.7
2018-01-30T11:23:15.182Z,1018.7
2018-01-30T11:24:16.801Z,1018.7
2018-01-30T11:25:18.420Z,1018.7
2018-01-30T11:26:20.032Z,1018.7
2018-01-30T11:27:21.649Z,1018.8
2018-01-30T11:28:23.273Z,1018.8
2018-01-30T11:29:24.893Z,1018.7
2018-01-30T11:30:26.516Z,1018.7
2018-01-30T11:31:28.121Z,1018.7
2018-01-30T11:32:29.735Z,1018.7
2018-01-30T11:33:31.354Z,1018.7
2018-01-30T11:34:32.972Z,1018.7
2018-01-30T11:35:34.584Z,1018.7
2018-01-30T11:36:36.208Z,1018.7
2018-01-30T11:37:37.828Z,1018.7
2018-01-30T11:38:39.438Z,1018.7
2018-01-30T11:39:41.056Z,1018.7
2018-01-30T11:40:42.672Z,1018.7
2018-01-30T11:41:44.291Z,1018.6
2018-01-30T11:42:45.906Z,1018.6
2018-01-30T11:43:47.526Z,1018.7
2018-01-30T11:44:49.141Z,1018.7
2018-01-30T11:45:50.756Z,1018.6
2018-01-30T11:46:52.375Z,1018.7
2018-01-30T11:47:53.990Z,1018.7
2018-01-30T11:48:55.607Z,1018.7
2018-01-30T11:49:57.226Z,1018.6
2018-01-30T11:50:58.834Z,1018.6
2018-01-30T11:52:00.454Z,1018.6
2018-01-30T11:53:02.067Z,1018.7
2018-01-30T11:54:03.686Z,1018.6
2018-01-30T11:55:05.295Z,1018.6
2018-01-30T11:56:06.915Z,1018.6
2018-01-30T11:57:08.527Z,1018.7
2018-01-30T11:58:10.147Z,1018.6
2018-01-30T11:59:11.760Z,1018.6
2018-01-30T12:00:13.377Z,1018.6
2018-01-30T12:01:14.986Z,1018.7
2018-01-30T12:02:16.596Z,1018.7
2018-01-30T12:03:18.214Z,1018.6
2018-01-30T12:04:19.830Z,1018.6
2018-01-30T12:05:21.442Z,1018.6
2018-01-30T12:06:23.058Z,1018.6
2018-01-30T12:07:24.671Z,1018.7
2018-01-30T12:08:26.284Z,1018.6
2018-01-30T12:09:27.901Z,1018.6
2018-01-30T12:10:29.516Z,1018.7
2018-01-30T12:11:31.137Z,1018.7
2018-01-30T12:12:32.749Z,1018.7
2018-01-30T12:13:34.373Z,1018.6
2018-01-30T12:14:35.980Z,1018.5
2018-01-30T12:15:37.602Z,1018.5
2018-01-30T12:16:39.213Z,1018.6
2018-01-30T12:17:40.833Z,1018.6
2018-01-30T12:18:42.451Z,1018.5
2018-01-30T12:19:44.066Z,1018.5
2018-01-30T12:20:45.682Z,1018.5
2018-01-30T12:21:47.302Z,1018.5
2018-01-30T12:22:48.922Z,1018.5
2018-01-30T12:23:50.538Z,1018.5
2018-01-30T12:24:52.157Z,1018.4
2018-01-30T12:25:53.775Z,1018.4
2018-01-30T12:26:55.387Z,1018.4
2018-01-30T12:27:57.008Z,1018.4
2018-01-30T12:28:58.629Z,1018.4
2018-01-30T12:30:00.241Z,1018.4
2018-01-30T12:31:01.855Z,1018.3
2018-01-30T12:32:03.477Z,1018.4
2018-01-30T12:33:05.094Z,1018.3
2018-01-30T12:34:06.707Z,1018.3
2018-01-30T12:35:08.330Z,1018.3
2018-01-30T12:36:09.941Z,1018.3
2018-01-30T12:37:11.554Z,1018.3
2018-01-30T12:38:13.169Z,1018.3
2018-01-30T12:39:14.787Z,1018.2
2018-01-30T12:40:16.406Z,1018.2
2018-01-30T12:41:18.031Z,1018.2
2018-01-30T12:42:19.647Z,1018.2
2018-01-30T12:43:21.252Z,1018.2
2018-01-30T12:44:22.864Z,1018.1
2018-01-30T12:45:24.479Z,1018.2
2018-01-30T12:46:26.097Z,1018.1
2018-01-30T12:47:27.715Z,1018.1
2018-01-30T12:48:29.329Z,1018.1